createdAt,value
2022-09-01T00:02:36.134Z,66.22
2022-09-01T00:05:18.585Z,66.01
2022-09-01T00:08:07.072Z,65.76
2022-09-01T00:10:50.140Z,66.25
2022-09-01T00:13:41.047Z,66.06
2022-09-01T00:16:23.582Z,65.91
2022-09-01T00:19:13.032Z,65.31
2022-09-01T00:22:03.548Z,65.22
2022-09-01T00:24:46.034Z,65.55
2022-09-01T00:27:35.730Z,65.50
2022-09-01T00:30:18.023Z,65.60
2022-09-01T00:33:13.900Z,65.62
2022-09-01T00:36:03.286Z,65.62
2022-09-01T00:38:52.045Z,66.27
2022-09-01T00:41:46.022Z,66.01
2022-09-01T00:44:36.043Z,66.10
2022-09-01T00:47:18.523Z,65.75
2022-09-01T00:50:08.264Z,66.11
2022-09-01T00:53:01.398Z,66.31
2022-09-01T00:55:45.375Z,65.53
2022-09-01T00:58:34.295Z,66.37
2022-09-01T01:01:18.665Z,66.47
2022-09-01T01:04:09.929Z,66.77
2022-09-01T01:07:10.285Z,67.58
2022-09-01T01:09:59.313Z,67.77
2022-09-01T01:12:48.059Z,68.08
2022-09-01T01:15:37.278Z,68.12
2022-09-01T01:18:23.111Z,68.28
2022-09-01T01:21:35.025Z,68.08
2022-09-01T01:24:24.236Z,68.31
2022-09-01T01:27:14.282Z,68.72
2022-09-01T01:29:58.379Z,67.94
2022-09-01T01:32:51.277Z,67.04
2022-09-01T01:35:47.012Z,66.96
2022-09-01T01:38:36.081Z,66.30
2022-09-01T01:41:22.994Z,66.55
2022-09-01T01:44:13.283Z,66.41
2022-09-01T01:46:58.577Z,65.87
2022-09-01T01:49:52.530Z,65.57
2022-09-01T01:52:35.645Z,65.93
2022-09-01T01:55:27.277Z,66.36
2022-09-01T01:58:19.496Z,66.81
2022-09-01T02:01:12.983Z,65.98
2022-09-01T02:04:00.434Z,65.36
2022-09-01T02:06:48.723Z,65.47
2022-09-01T02:09:30.929Z,65.21
2022-09-01T02:12:19.268Z,64.33
2022-09-01T02:15:03.469Z,64.18
2022-09-01T02:17:52.010Z,63.92
2022-09-01T02:20:35.550Z,64.04
2022-09-01T02:23:31.292Z,62.85
2022-09-01T02:26:17.578Z,62.29
2022-09-01T02:29:13.058Z,62.10
2022-09-01T02:32:05.278Z,62.66
2022-09-01T02:35:08.899Z,62.53
2022-09-01T02:38:06.276Z,63.06
2022-09-01T02:40:52.068Z,63.09
2022-09-01T02:43:41.264Z,62.35
2022-09-01T02:46:24.878Z,62.90
2022-09-01T02:49:16.310Z,62.03
2022-09-01T02:52:02.525Z,62.38
2022-09-01T02:54:55.032Z,61.56
2022-09-01T02:57:44.272Z,61.59
2022-09-01T03:00:38.239Z,61.08
2022-09-01T03:03:25.077Z,61.18
2022-09-01T03:06:15.752Z,60.91
2022-09-01T03:09:02.288Z,60.73
2022-09-01T03:11:56.255Z,59.75
2022-09-01T03:14:38.250Z,59.33
2022-09-01T03:17:27.158Z,59.57
2022-09-01T03:20:16.272Z,60.22
2022-09-01T03:23:06.031Z,60.13
2022-09-01T03:25:50.425Z,58.91
2022-09-01T03:28:39.041Z,59.13
2022-09-01T03:31:22.584Z,58.71
2022-09-01T03:34:14.051Z,58.96
2022-09-01T03:37:15.189Z,59.37
2022-09-01T03:40:05.313Z,57.84
2022-09-01T03:42:48.273Z,57.67
2022-09-01T03:45:31.726Z,57.57
2022-09-01T03:48:24.271Z,57.40
2022-09-01T03:51:15.417Z,56.60
2022-09-01T03:54:02.284Z,56.29
2022-09-01T03:56:44.916Z,56.53
2022-09-01T03:59:36.009Z,56.54
2022-09-01T04:02:26.087Z,55.63
2022-09-01T04:05:08.964Z,56.04
2022-09-01T04:07:58.023Z,55.10
2022-09-01T04:10:48.841Z,54.55
2022-09-01T04:13:47.073Z,54.60
2022-09-01T04:16:51.876Z,55.20
2022-09-01T04:19:47.063Z,54.53
2022-09-01T04:22:33.721Z,55.70
2022-09-01T04:25:23.248Z,54.13
2022-09-01T04:28:20.188Z,54.46
2022-09-01T04:31:15.668Z,53.25
2022-09-01T04:34:01.033Z,53.42
2022-09-01T04:36:45.723Z,50.84
2022-09-01T04:39:38.031Z,51.09
2022-09-01T04:42:31.284Z,50.06
2022-09-01T04:45:19.975Z,49.34
2022-09-01T04:48:09.285Z,49.11
2022-09-01T04:50:53.131Z,48.54
2022-09-01T04:53:48.296Z,47.21
2022-09-01T04:56:36.627Z,46.64
2022-09-01T04:59:31.283Z,46.24
2022-09-01T05:02:13.251Z,45.77
2022-09-01T05:05:03.279Z,45.86
2022-09-01T05:07:45.571Z,46.81
2022-09-01T05:10:37.261Z,45.68
2022-09-01T05:13:30.422Z,46.63
2022-09-01T05:16:25.386Z,45.31
2022-09-01T05:19:08.209Z,45.65
2022-09-01T05:21:57.023Z,44.34
2022-09-01T05:24:42.320Z,43.50
2022-09-01T05:27:33.291Z,44.76
2022-09-01T05:30:17.981Z,44.34
2022-09-01T05:33:07.279Z,44.99
2022-09-01T05:35:53.242Z,43.76
2022-09-01T05:38:44.047Z,43.10
2022-09-01T05:41:29.227Z,45.22
2022-09-01T05:44:19.024Z,45.59
2022-09-01T05:47:09.694Z,44.63
2022-09-01T05:50:06.032Z,44.93
2022-09-01T05:52:49.023Z,44.94
2022-09-01T05:55:42.893Z,43.36
2022-09-01T05:58:25.836Z,45.19
2022-09-01T06:01:18.032Z,43.29
2022-09-01T06:04:06.590Z,44.27
2022-09-01T06:07:06.718Z,44.48
2022-09-01T06:09:55.322Z,44.97
2022-09-01T06:12:44.264Z,46.21
2022-09-01T06:15:33.258Z,45.19
2022-09-01T06:18:16.225Z,45.95
2022-09-01T06:21:12.278Z,43.99
2022-09-01T06:23:55.511Z,43.12
2022-09-01T06:26:48.274Z,47.82
2022-09-01T06:29:32.301Z,44.53
2022-09-01T06:32:22.304Z,44.40
2022-09-01T06:35:12.798Z,46.38
2022-09-01T06:37:56.025Z,47.00
2022-09-01T06:40:56.685Z,46.15
2022-09-01T06:43:40.570Z,44.86
2022-09-01T06:46:30.587Z,45.82
2022-09-01T06:49:12.992Z,44.32
2022-09-01T06:51:57.164Z,45.31
2022-09-01T06:54:49.251Z,46.89
2022-09-01T07:00:43.181Z,47.90
2022-09-01T07:03:33.317Z,46.55
2022-09-01T07:10:17.773Z,50.22
2022-09-01T07:13:18.040Z,52.73
2022-09-01T07:16:33.356Z,48.79
2022-09-01T07:19:48.281Z,51.35
2022-09-01T07:22:38.526Z,53.32
2022-09-01T07:26:01.407Z,54.64
2022-09-01T07:28:50.294Z,54.76
2022-09-01T07:34:50.099Z,55.61
2022-09-01T07:44:09.676Z,48.01
2022-09-01T07:51:34.221Z,50.46
2022-09-01T07:53:44.265Z,49.45
2022-09-01T07:56:37.574Z,45.20
2022-09-01T07:59:29.002Z,47.92
2022-09-01T08:02:22.661Z,45.24
2022-09-01T08:05:12.266Z,47.54
2022-09-01T08:08:02.322Z,46.86
2022-09-01T08:10:49.235Z,48.70
2022-09-01T08:13:31.289Z,44.82
2022-09-01T08:16:22.346Z,46.70
2022-09-01T08:19:19.123Z,45.47
2022-09-01T08:22:25.129Z,47.54
2022-09-01T08:25:21.780Z,45.98
2022-09-01T08:28:14.033Z,44.41
2022-09-01T08:30:56.997Z,44.05
2022-09-01T08:33:46.045Z,44.53
2022-09-01T08:36:28.206Z,45.62
2022-09-01T08:39:18.256Z,45.73
2022-09-01T08:42:34.120Z,46.46
2022-09-01T08:46:02.962Z,45.60
2022-09-01T08:52:32.925Z,44.80
2022-09-01T08:55:22.239Z,45.65
2022-09-01T08:58:15.930Z,45.06
2022-09-01T09:02:02.633Z,45.09
2022-09-01T09:05:45.189Z,44.86
2022-09-01T09:08:52.125Z,44.17
2022-09-01T09:11:43.515Z,44.92
2022-09-01T09:14:53.044Z,46.44
2022-09-01T09:17:43.432Z,47.45
2022-09-01T09:20:32.322Z,47.72
2022-09-01T09:23:27.532Z,47.54
2022-09-01T09:26:21.658Z,47.60
2022-09-01T09:29:10.957Z,48.68
2022-09-01T09:32:44.936Z,47.16
2022-09-01T09:35:41.317Z,47.50
2022-09-01T09:38:33.858Z,47.46
2022-09-01T09:41:27.608Z,48.28
2022-09-01T09:44:38.321Z,48.34
2022-09-01T09:47:49.933Z,50.65
2022-09-01T09:50:35.475Z,48.14
2022-09-01T09:53:26.934Z,48.34
2022-09-01T09:56:19.700Z,47.36
2022-09-01T09:59:08.325Z,47.19
2022-09-01T10:01:54.125Z,48.67
2022-09-01T10:04:51.486Z,48.00
2022-09-01T10:07:45.355Z,47.67
2022-09-01T10:10:48.753Z,48.11
2022-09-01T10:13:40.372Z,47.56
2022-09-01T10:16:43.998Z,48.52
2022-09-01T10:19:36.627Z,47.46
2022-09-01T10:22:19.077Z,47.01
2022-09-01T10:25:10.405Z,46.41
2022-09-01T10:27:59.184Z,45.59
2022-09-01T10:30:45.206Z,44.86
2022-09-01T10:33:43.028Z,45.91
2022-09-01T10:36:32.249Z,45.70
2022-09-01T10:39:21.978Z,45.93
2022-09-01T10:42:25.904Z,45.49
2022-09-01T10:45:33.249Z,45.38
2022-09-01T10:48:33.389Z,45.16
2022-09-01T10:51:35.497Z,44.91
2022-09-01T10:54:51.841Z,43.73
2022-09-01T10:58:07.773Z,43.69
2022-09-01T11:01:40.292Z,44.37
2022-09-01T11:04:05.424Z,43.93
2022-09-01T11:07:17.877Z,45.02
2022-09-01T11:10:57.269Z,45.23
2022-09-01T11:13:56.289Z,45.08
2022-09-01T11:16:49.610Z,45.81
2022-09-01T11:19:44.128Z,44.93
2022-09-01T11:22:38.090Z,45.36
2022-09-01T11:25:45.106Z,46.69
2022-09-01T11:28:46.892Z,47.20
2022-09-01T11:31:49.304Z,46.19
2022-09-01T11:34:34.542Z,47.45
2022-09-01T11:37:28.280Z,45.98
2022-09-01T11:40:14.728Z,46.59
2022-09-01T11:43:05.088Z,45.47
2022-09-01T11:45:59.324Z,45.66
2022-09-01T11:48:53.203Z,45.12
2022-09-01T11:51:35.291Z,44.03
2022-09-01T11:54:24.161Z,44.38
2022-09-01T11:57:06.294Z,42.97
2022-09-01T11:59:55.312Z,43.39
2022-09-01T12:02:53.655Z,43.93
2022-09-01T12:05:48.279Z,43.51
2022-09-01T12:08:31.620Z,44.93
2022-09-01T12:11:28.266Z,44.42
2022-09-01T12:14:16.292Z,42.79
2022-09-01T12:17:14.258Z,43.71
2022-09-01T12:19:56.396Z,43.55
2022-09-01T12:22:45.031Z,43.76
2022-09-01T12:25:41.538Z,44.78
2022-09-01T12:28:38.968Z,44.84
2022-09-01T12:31:34.344Z,44.72
2022-09-01T12:34:41.267Z,45.07
2022-09-01T12:37:34.054Z,46.21
2022-09-01T12:40:39.632Z,46.52
2022-09-01T12:43:40.062Z,44.61
2022-09-01T12:46:55.239Z,44.87
2022-09-01T12:50:03.528Z,43.96
2022-09-01T12:53:00.330Z,45.62
2022-09-01T12:55:51.048Z,45.03
2022-09-01T12:58:34.024Z,45.22
2022-09-01T13:01:24.100Z,47.39
2022-09-01T13:04:37.606Z,47.63
2022-09-01T13:07:19.034Z,46.19
2022-09-01T13:10:01.406Z,47.11
2022-09-01T13:12:56.056Z,46.46
2022-09-01T13:15:48.306Z,46.58
2022-09-01T13:21:48.157Z,45.74
2022-09-01T13:24:31.632Z,47.37
2022-09-01T13:27:22.468Z,47.26
2022-09-01T13:30:04.678Z,46.89
2022-09-01T13:36:42.700Z,47.04
2022-09-01T13:39:12.564Z,47.64
2022-09-01T13:41:55.280Z,47.34
2022-09-01T13:44:44.116Z,46.79
2022-09-01T13:47:30.055Z,48.26
2022-09-01T13:51:14.148Z,47.63
2022-09-01T13:53:38.921Z,50.17
2022-09-01T13:56:28.283Z,50.60
2022-09-01T13:59:10.193Z,49.68
2022-09-01T14:01:58.958Z,49.27
2022-09-01T14:04:48.599Z,49.51
2022-09-01T14:07:33.550Z,51.43
2022-09-01T14:10:23.111Z,51.45
2022-09-01T14:13:06.913Z,50.71
2022-09-01T14:15:57.109Z,50.36
2022-09-01T14:18:39.696Z,51.39
2022-09-01T14:21:28.263Z,50.03
2022-09-01T14:24:10.490Z,49.94
2022-09-01T14:26:58.917Z,50.31
2022-09-01T14:32:34.345Z,49.92
2022-09-01T14:35:16.470Z,50.71
2022-09-01T14:38:06.060Z,52.87
2022-09-01T14:40:49.963Z,53.88
2022-09-01T14:43:40.368Z,52.73
2022-09-01T14:46:22.816Z,52.29
2022-09-01T14:49:12.305Z,52.68
2022-09-01T14:52:10.762Z,54.05
2022-09-01T14:55:00.531Z,53.25
2022-09-01T14:57:48.957Z,53.66
2022-09-01T15:00:39.065Z,53.53
2022-09-01T15:03:22.993Z,52.54
2022-09-01T15:06:12.040Z,52.62
2022-09-01T15:08:55.404Z,53.78
2022-09-01T15:11:45.641Z,52.70
2022-09-01T15:14:28.134Z,52.31
2022-09-01T15:17:18.285Z,53.28
2022-09-01T15:20:27.170Z,52.75
2022-09-01T15:23:18.325Z,52.89
2022-09-01T15:26:03.310Z,54.36
2022-09-01T15:28:56.237Z,54.81
2022-09-01T15:31:39.304Z,55.14
2022-09-01T15:34:28.247Z,56.21
2022-09-01T15:37:11.021Z,56.24
2022-09-01T15:39:59.961Z,55.35
2022-09-01T15:42:50.203Z,55.51
2022-09-01T15:45:39.021Z,54.66
2022-09-01T15:48:21.539Z,55.20
2022-09-01T15:51:31.949Z,55.52
2022-09-01T15:54:33.308Z,55.89
2022-09-01T15:57:15.368Z,56.31
2022-09-01T16:00:05.074Z,56.38
2022-09-01T16:02:47.286Z,57.44
2022-09-01T16:05:36.310Z,57.24
2022-09-01T16:08:18.318Z,57.36
2022-09-01T16:11:08.023Z,57.13
2022-09-01T16:13:54.634Z,57.61
2022-09-01T16:17:02.637Z,56.80
2022-09-01T16:19:47.337Z,56.99
2022-09-01T16:22:52.262Z,56.36
2022-09-01T16:25:42.518Z,56.31
2022-09-01T16:28:43.911Z,56.93
2022-09-01T16:31:32.292Z,57.03
2022-09-01T16:34:30.914Z,57.69
2022-09-01T16:38:16.472Z,57.31
2022-09-01T16:41:03.999Z,57.36
2022-09-01T16:44:27.453Z,57.29
2022-09-01T16:47:44.272Z,56.79
2022-09-01T16:51:02.318Z,56.89
2022-09-01T16:54:18.024Z,56.87
2022-09-01T16:57:39.695Z,57.09
2022-09-01T17:00:38.995Z,57.10
2022-09-01T17:03:43.196Z,57.85
2022-09-01T17:06:37.340Z,58.15
2022-09-01T17:09:37.270Z,57.59
2022-09-01T17:12:34.899Z,56.85
2022-09-01T17:15:39.322Z,57.95
2022-09-01T17:18:45.151Z,58.30
2022-09-01T17:21:53.268Z,57.76
2022-09-01T17:24:51.579Z,58.98
2022-09-01T17:28:06.033Z,59.02
2022-09-01T17:31:08.191Z,59.25
2022-09-01T17:34:14.919Z,59.91
2022-09-01T17:37:30.245Z,58.97
2022-09-01T17:40:36.385Z,60.66
2022-09-01T17:43:21.855Z,61.09
2022-09-01T17:46:21.059Z,61.00
2022-09-01T17:49:17.951Z,60.91
2022-09-01T17:52:39.302Z,61.41
2022-09-01T17:55:38.046Z,62.26
2022-09-01T17:58:57.703Z,62.46
2022-09-01T18:01:51.305Z,61.81
2022-09-01T18:05:00.111Z,62.55
2022-09-01T18:07:53.088Z,62.71
2022-09-01T18:10:59.400Z,63.22
2022-09-01T18:13:59.529Z,63.06
2022-09-01T18:17:29.231Z,63.50
2022-09-01T18:20:25.208Z,63.59
2022-09-01T18:23:27.526Z,63.39
2022-09-01T18:26:35.407Z,63.96
2022-09-01T18:29:29.562Z,63.30
2022-09-01T18:32:42.705Z,61.14
2022-09-01T18:35:40.370Z,62.05
2022-09-01T18:38:43.927Z,62.36
2022-09-01T18:42:03.248Z,62.89
2022-09-01T18:45:13.791Z,63.16
2022-09-01T18:48:14.285Z,63.19
2022-09-01T18:51:20.712Z,63.22
2022-09-01T18:54:15.262Z,63.05
2022-09-01T18:57:14.977Z,63.60
2022-09-01T19:00:30.628Z,64.25
2022-09-01T19:03:33.362Z,64.49
2022-09-01T19:06:20.260Z,64.78
2022-09-01T19:09:07.672Z,64.53
2022-09-01T19:12:23.040Z,64.67
2022-09-01T19:15:31.190Z,64.46
2022-09-01T19:18:32.267Z,64.31
2022-09-01T19:21:39.991Z,64.38
2022-09-01T19:24:48.695Z,64.44
2022-09-01T19:27:40.225Z,64.95
2022-09-01T19:30:22.428Z,64.88
2022-09-01T19:33:14.230Z,65.05
2022-09-01T19:35:59.764Z,64.93
2022-09-01T19:38:48.261Z,65.34
2022-09-01T19:41:34.810Z,65.24
2022-09-01T19:44:28.261Z,65.19
2022-09-01T19:47:26.067Z,65.07
2022-09-01T19:50:29.259Z,64.88
2022-09-01T19:53:39.449Z,65.12
2022-09-01T19:56:49.600Z,65.04
2022-09-01T20:00:08.289Z,64.95
2022-09-01T20:02:59.189Z,64.75
2022-09-01T20:05:56.377Z,64.87
2022-09-01T20:08:41.257Z,65.25
2022-09-01T20:11:45.018Z,65.21
2022-09-01T20:15:11.267Z,65.84
2022-09-01T20:18:06.300Z,65.46
2022-09-01T20:20:55.484Z,65.65
2022-09-01T20:24:10.911Z,65.72
2022-09-01T20:27:21.227Z,65.57
2022-09-01T20:30:21.089Z,65.82
2022-09-01T20:33:32.620Z,65.75
2022-09-01T20:36:50.178Z,66.18
2022-09-01T20:40:06.361Z,65.87
2022-09-01T20:43:07.174Z,66.10
2022-09-01T20:45:49.613Z,65.87
2022-09-01T20:48:39.265Z,65.50
2022-09-01T20:51:40.914Z,65.35
2022-09-01T20:54:41.141Z,64.90
2022-09-01T20:58:00.107Z,65.00
2022-09-01T21:01:03.935Z,64.73
2022-09-01T21:04:09.527Z,64.51
2022-09-01T21:07:01.891Z,64.61
2022-09-01T21:10:25.011Z,65.09
2022-09-01T21:13:44.982Z,65.15
2022-09-01T21:17:06.095Z,64.93
2022-09-01T21:20:03.234Z,64.87
2022-09-01T21:22:51.844Z,65.27
2022-09-01T21:25:33.277Z,65.26
2022-09-01T21:28:27.237Z,65.49
2022-09-01T21:31:09.950Z,65.15
2022-09-01T21:34:00.001Z,65.43
2022-09-01T21:36:42.574Z,65.46
2022-09-01T21:39:31.125Z,65.65
2022-09-01T21:42:15.188Z,65.57
2022-09-01T21:45:06.231Z,65.38
2022-09-01T21:47:49.324Z,65.46
2022-09-01T21:50:37.990Z,65.79
2022-09-01T21:53:21.355Z,65.87
2022-09-01T21:56:09.998Z,65.78
2022-09-01T21:58:52.257Z,65.41
2022-09-01T22:01:49.889Z,65.83
2022-09-01T22:04:38.157Z,65.53
2022-09-01T22:07:24.036Z,65.30
2022-09-01T22:10:11.154Z,65.06
2022-09-01T22:13:02.268Z,65.20
2022-09-01T22:15:53.572Z,65.05
2022-09-01T22:18:35.017Z,65.20
2022-09-01T22:21:23.920Z,65.01
2022-09-01T22:24:12.894Z,65.11
2022-09-01T22:27:07.928Z,65.45
2022-09-01T22:29:56.996Z,66.19
2022-09-01T22:32:40.710Z,66.21
2022-09-01T22:35:31.182Z,66.19
2022-09-01T22:38:20.140Z,66.35
2022-09-01T22:41:05.360Z,66.88
2022-09-01T22:43:54.901Z,66.79
2022-09-01T22:46:37.272Z,67.49
2022-09-01T22:49:26.237Z,67.52
2022-09-01T22:52:09.251Z,67.90
2022-09-01T22:54:58.240Z,67.95
2022-09-01T22:57:42.149Z,67.55
2022-09-01T23:00:31.912Z,68.26
2022-09-01T23:03:27.183Z,68.15
2022-09-01T23:06:25.291Z,67.86
2022-09-01T23:09:11.511Z,68.17
2022-09-01T23:11:59.889Z,68.13
2022-09-01T23:14:41.426Z,68.39
2022-09-01T23:17:30.325Z,68.45
2022-09-01T23:20:15.551Z,68.52
2022-09-01T23:23:03.978Z,67.95
2022-09-01T23:25:52.888Z,67.97
2022-09-01T23:28:43.141Z,68.50
2022-09-01T23:31:36.025Z,68.28
2022-09-01T23:34:25.228Z,67.84
2022-09-01T23:37:08.310Z,67.87
2022-09-01T23:39:56.983Z,67.81
2022-09-01T23:42:46.238Z,67.58
2022-09-01T23:45:37.077Z,67.69
2022-09-01T23:48:20.546Z,67.34
2022-09-01T23:51:16.288Z,67.07
2022-09-01T23:53:59.498Z,66.96
2022-09-01T23:56:49.236Z,67.40
2022-09-01T23:59:31.530Z,67.13
